Santa Fe do Sul, Brazil
Current Conditions -  °F | °C
As of 12:00 AM on Monday 20 Oct 2014 (Local Time) from SBSR Reporting Station
Broken Clouds Broken Clouds  
Wind Chill: 77°   Ceiling: 7000
Heat Index: 79°   Visibility: 6mi
Dew Point: 59°   Wind: 12mph
Humidity: 54%   Direction: 120°ESE
Pressure: 30"   Gusts: NA
Location:  20.21°S, 50.93°W
Report Text: SBSR 200300Z 12010KT 9999 FEW030TCU BKN070 25/15 Q1016
Loading
Personal Weather Stations






























Interactive Weather Map
Tropical Storm Tracking
New forecast layout! Learn more

10-Day Weather Forecast

Advertisements
Track Severe Weather on mobile